Time;durP1;ratioP1;P1;durP2;ratioP2;P2;SDS_P1;SDS_P2;PMS_P1;PMS_P2;Temp;Humidity;BMP_temperature;BMP_pressure;BME280_temperature;BME280_humidity;BME280_pressure;Samples;Min_cycle;Max_cycle;Signal;HPM_P1;HPM_P2
2022/07/14 00:02:05;;;;;;;1.45;0.30;;;21.10;82.50;;;;;;4979953;28;20057;-89
2022/07/14 00:04:32;;;;;;;0.30;0.20;;;21.30;81.00;;;;;;4988115;28;20019;-89
2022/07/14 00:06:58;;;;;;;1.38;0.28;;;21.70;81.50;;;;;;4981391;28;20036;-90
2022/07/14 00:09:31;;;;;;;0.32;0.17;;;21.80;81.40;;;;;;4997976;28;20022;-89
2022/07/14 00:11:57;;;;;;;0.47;0.20;;;21.80;80.90;;;;;;4979367;28;20054;-89
2022/07/14 00:14:23;;;;;;;1.02;0.35;;;21.80;81.50;;;;;;4979927;28;20062;-89
2022/07/14 00:16:51;;;;;;;0.82;0.30;;;21.70;80.90;;;;;;4983029;28;20037;-88
2022/07/14 00:19:18;;;;;;;0.73;0.20;;;21.70;81.20;;;;;;4993050;28;20026;-90
2022/07/14 00:21:44;;;;;;;3.38;0.50;;;21.70;81.10;;;;;;4981298;28;20517;-90
2022/07/14 00:24:11;;;;;;;0.40;0.20;;;21.70;81.50;;;;;;4982751;28;20114;-89
2022/07/14 00:26:40;;;;;;;0.77;0.38;;;21.70;81.70;;;;;;4979470;28;20030;-88
2022/07/14 00:29:15;;;;;;;0.43;0.20;;;20.90;80.10;;;;;;4978636;28;20026;-90
2022/07/14 00:31:45;;;;;;;2.42;0.30;;;21.90;80.30;;;;;;4995448;28;20057;-90
2022/07/14 00:34:12;;;;;;;0.77;0.33;;;21.70;81.00;;;;;;4985039;28;20030;-89
2022/07/14 00:36:38;;;;;;;0.85;0.30;;;21.70;82.20;;;;;;4983801;28;20113;-90
2022/07/14 00:39:09;;;;;;;1.58;0.40;;;21.60;81.50;;;;;;4981702;28;20126;-89
2022/07/14 00:41:41;;;;;;;1.58;0.35;;;21.70;81.60;;;;;;4980666;28;20042;-90
2022/07/14 00:44:09;;;;;;;0.50;0.20;;;22.00;81.00;;;;;;4995019;28;20479;-89
2022/07/14 00:46:38;;;;;;;1.33;0.30;;;21.70;82.20;;;;;;4984934;28;20026;-89
2022/07/14 00:49:06;;;;;;;0.80;0.30;;;21.30;81.40;;;;;;4979839;28;20026;-89
2022/07/14 00:51:34;;;;;;;0.20;0.20;;;21.60;82.00;;;;;;4983387;28;20037;-89
2022/07/14 00:54:04;;;;;;;0.43;0.20;;;21.50;83.30;;;;;;4982253;28;20105;-90
2022/07/14 00:56:32;;;;;;;0.65;0.30;;;22.00;82.90;;;;;;4997486;28;20034;-89
2022/07/14 00:58:58;;;;;;;1.20;0.20;;;21.50;83.90;;;;;;4984183;28;20045;-88
2022/07/14 01:01:41;;;;;;;1.45;0.30;;;21.40;83.70;;;;;;4978965;28;20030;-89
2022/07/14 01:04:10;;;;;;;2.38;0.30;;;21.00;82.50;;;;;;4987120;28;20050;-89
2022/07/14 01:06:39;;;;;;;0.85;0.20;;;21.10;83.00;;;;;;4998140;28;20095;-89
2022/07/14 01:09:05;;;;;;;1.00;0.28;;;22.90;85.60;;;;;;4976299;28;20029;-90
2022/07/14 01:11:30;;;;;;;0.30;0.20;;;21.20;84.20;;;;;;4986654;28;20025;-89
2022/07/14 01:13:58;;;;;;;0.88;0.30;;;21.10;84.30;;;;;;4978005;28;20030;-89
2022/07/14 01:16:25;;;;;;;1.27;0.30;;;21.10;84.90;;;;;;4978723;28;20100;-89
2022/07/14 01:18:59;;;;;;;1.92;0.30;;;21.10;85.70;;;;;;4998097;28;20347;-90
2022/07/14 01:21:30;;;;;;;0.68;0.20;;;21.00;84.90;;;;;;4977149;28;20026;-89
2022/07/14 01:23:56;;;;;;;0.70;0.30;;;21.20;85.70;;;;;;4979320;28;20030;-89
2022/07/14 01:26:24;;;;;;;0.57;0.20;;;21.00;85.30;;;;;;4978396;28;20545;-88
2022/07/14 01:28:50;;;;;;;0.28;0.17;;;21.00;87.60;;;;;;4979935;28;20026;-89
2022/07/14 01:31:15;;;;;;;0.85;0.20;;;20.90;85.70;;;;;;4984719;28;20533;-89
2022/07/14 01:33:41;;;;;;;1.35;0.20;;;20.80;85.40;;;;;;4979365;28;20682;-90
2022/07/14 01:36:09;;;;;;;0.82;0.20;;;20.80;85.50;;;;;;4981627;28;20061;-89
2022/07/14 01:38:35;;;;;;;1.73;0.30;;;20.70;86.20;;;;;;4979396;28;20038;-90
2022/07/14 01:41:01;;;;;;;1.17;0.40;;;20.70;86.00;;;;;;4979213;28;20077;-89
2022/07/14 01:43:29;;;;;;;0.45;0.30;;;20.70;86.60;;;;;;5004652;23;20045;-87
2022/07/14 01:45:55;;;;;;;0.40;0.22;;;20.60;86.90;;;;;;5025754;28;20060;-87
2022/07/14 01:48:23;;;;;;;1.38;0.25;;;20.60;87.10;;;;;;5043733;28;20044;-88
2022/07/14 01:50:49;;;;;;;0.90;0.30;;;20.60;88.20;;;;;;5029563;28;20033;-87
2022/07/14 01:53:15;;;;;;;0.95;0.50;;;20.50;86.70;;;;;;5036367;28;20096;-87
2022/07/14 01:55:42;;;;;;;0.80;0.30;;;20.60;89.00;;;;;;5033042;28;20485;-87
2022/07/14 01:58:08;;;;;;;0.82;0.30;;;20.40;87.00;;;;;;5034026;28;20017;-89
2022/07/14 02:00:33;;;;;;;0.52;0.30;;;20.30;87.20;;;;;;5016019;28;20745;-88
2022/07/14 02:02:59;;;;;;;0.60;0.40;;;20.30;87.40;;;;;;5013963;28;20031;-87
2022/07/14 02:05:27;;;;;;;2.05;0.40;;;20.30;86.60;;;;;;5032692;28;20029;-86
2022/07/14 02:07:53;;;;;;;0.75;0.30;;;20.20;86.80;;;;;;5008172;28;20018;-89
2022/07/14 02:13:06;;;;;;;0.75;0.30;;;20.30;86.70;;;;;;5028650;28;20679;-88
2022/07/14 02:15:32;;;;;;;3.25;0.30;;;20.20;87.00;;;;;;5032033;28;20025;-87
2022/07/14 02:17:57;;;;;;;0.45;0.20;;;20.20;86.00;;;;;;5011602;28;20033;-87
2022/07/14 02:20:24;;;;;;;0.50;0.20;;;20.20;84.80;;;;;;5013986;28;20029;-87
2022/07/14 02:22:49;;;;;;;0.30;0.20;;;20.20;84.10;;;;;;5013466;28;20029;-88
2022/07/14 02:25:15;;;;;;;1.10;0.30;;;19.60;83.40;;;;;;5012851;28;20076;-87
2022/07/14 02:27:41;;;;;;;1.80;0.20;;;20.10;83.90;;;;;;5014872;28;20596;-87
2022/07/14 02:30:07;;;;;;;0.85;0.30;;;20.20;85.40;;;;;;5014909;28;20086;-86
2022/07/14 02:32:33;;;;;;;0.38;0.20;;;20.10;84.10;;;;;;5012912;28;20102;-88
2022/07/14 02:34:58;;;;;;;0.45;0.20;;;20.00;85.70;;;;;;5012583;28;20719;-87
2022/07/14 02:37:24;;;;;;;0.57;0.30;;;20.00;84.80;;;;;;5014197;28;20387;-87
2022/07/14 02:39:50;;;;;;;0.13;0.10;;;20.00;83.90;;;;;;5013833;28;20052;-87
2022/07/14 02:42:16;;;;;;;1.80;0.30;;;20.00;84.00;;;;;;5012320;28;20041;-87
2022/07/14 02:44:41;;;;;;;1.00;0.20;;;20.00;83.70;;;;;;5012642;28;20026;-88
2022/07/14 02:47:07;;;;;;;0.40;0.20;;;20.30;84.10;;;;;;5027244;28;20382;-87
2022/07/14 02:49:33;;;;;;;0.40;0.20;;;19.90;84.20;;;;;;5013213;28;20018;-88
2022/07/14 02:51:58;;;;;;;0.60;0.22;;;20.60;86.10;;;;;;5031232;28;20033;-88
2022/07/14 02:54:24;;;;;;;1.45;0.30;;;19.80;84.80;;;;;;5031063;28;20033;-88
2022/07/14 02:56:50;;;;;;;0.40;0.20;;;19.90;85.00;;;;;;5028239;28;20054;-87
2022/07/14 02:59:16;;;;;;;0.55;0.20;;;19.80;86.20;;;;;;5014467;28;20033;-87
2022/07/14 03:01:46;;;;;;;1.25;0.30;;;19.90;88.80;;;;;;5033525;28;20064;-88
2022/07/14 03:04:12;;;;;;;0.30;0.20;;;19.70;87.70;;;;;;5033427;28;20389;-87
2022/07/14 03:06:38;;;;;;;0.57;0.28;;;20.10;87.90;;;;;;5035684;28;20040;-86
2022/07/14 03:09:03;;;;;;;0.38;0.20;;;19.90;90.80;;;;;;5027753;28;20516;-87
2022/07/14 03:11:29;;;;;;;0.57;0.30;;;19.20;93.00;;;;;;5029352;28;20053;-87
2022/07/14 03:13:55;;;;;;;0.50;0.20;;;19.60;95.50;;;;;;5034687;28;20397;-87
2022/07/14 03:16:20;;;;;;;0.43;0.20;;;19.60;86.70;;;;;;5013257;28;20405;-87
2022/07/14 03:18:46;;;;;;;0.80;0.30;;;19.50;86.20;;;;;;5018499;28;20033;-87
2022/07/14 03:21:23;;;;;;;0.30;0.10;;;19.70;87.00;;;;;;5015354;28;20092;-87
2022/07/14 03:23:49;;;;;;;1.23;0.30;;;19.80;90.60;;;;;;5031846;28;20032;-87
2022/07/14 03:26:15;;;;;;;0.40;0.30;;;19.60;90.00;;;;;;5035603;28;20036;-88
2022/07/14 03:28:41;;;;;;;1.05;0.35;;;19.30;90.40;;;;;;5034860;28;20409;-86
2022/07/14 03:31:07;;;;;;;0.68;0.20;;;19.20;90.70;;;;;;5015272;28;20021;-87
2022/07/14 03:33:32;;;;;;;1.10;0.40;;;19.10;90.50;;;;;;5014480;28;20037;-87
2022/07/14 03:35:59;;;;;;;1.83;0.40;;;19.10;90.90;;;;;;5013750;28;20708;-88
2022/07/14 03:38:24;;;;;;;1.67;0.30;;;19.10;91.40;;;;;;5014140;28;21227;-87
2022/07/14 03:40:50;;;;;;;1.50;0.38;;;19.00;91.40;;;;;;5015610;28;20036;-87
2022/07/14 03:43:16;;;;;;;2.08;0.30;;;19.00;91.50;;;;;;5017464;28;20044;-87
2022/07/14 03:45:42;;;;;;;1.02;0.40;;;19.00;91.80;;;;;;5015269;28;20116;-88
2022/07/14 03:48:08;;;;;;;0.80;0.30;;;18.90;92.00;;;;;;5017293;28;20057;-87
2022/07/14 03:50:35;;;;;;;1.35;0.45;;;18.90;92.40;;;;;;5033856;28;20080;-87
2022/07/14 03:53:01;;;;;;;0.85;0.40;;;19.00;92.70;;;;;;5033436;28;20466;-87
2022/07/14 03:55:27;;;;;;;1.88;0.40;;;18.90;92.90;;;;;;5032588;28;20021;-87
2022/07/14 03:57:52;;;;;;;1.80;0.50;;;18.90;93.30;;;;;;5017227;28;20033;-87
2022/07/14 04:00:18;;;;;;;1.00;0.40;;;18.90;93.30;;;;;;5033181;28;20375;-87
2022/07/14 04:02:44;;;;;;;1.73;0.55;;;19.00;93.40;;;;;;5035898;28;20139;-87
2022/07/14 04:05:10;;;;;;;2.95;0.55;;;19.00;93.50;;;;;;5015770;28;20026;-87
2022/07/14 04:07:35;;;;;;;1.98;0.50;;;19.00;94.00;;;;;;5011413;28;20057;-87
2022/07/14 04:10:01;;;;;;;1.02;0.40;;;19.00;94.10;;;;;;5014161;28;20044;-88
2022/07/14 04:12:27;;;;;;;1.40;0.70;;;19.00;94.10;;;;;;5011945;28;20440;-87
2022/07/14 04:14:52;;;;;;;0.82;0.40;;;19.00;94.00;;;;;;5034939;28;20508;-87
2022/07/14 04:17:18;;;;;;;2.58;0.60;;;19.00;93.90;;;;;;5033722;28;20022;-87
2022/07/14 04:19:44;;;;;;;0.88;0.40;;;19.00;94.10;;;;;;5039209;28;20042;-87
2022/07/14 04:22:09;;;;;;;1.25;0.55;;;19.00;94.20;;;;;;5014146;28;20029;-87
2022/07/14 04:24:37;;;;;;;2.05;0.60;;;19.10;94.20;;;;;;5017013;28;20040;-87
2022/07/14 04:27:03;;;;;;;1.42;0.40;;;19.10;94.40;;;;;;5015912;28;20025;-87
2022/07/14 04:29:28;;;;;;;1.98;0.52;;;19.00;94.10;;;;;;5036396;28;20029;-87
2022/07/14 04:31:54;;;;;;;0.80;0.35;;;19.00;94.30;;;;;;5034403;28;20091;-87
2022/07/14 04:34:20;;;;;;;0.90;0.40;;;19.10;94.60;;;;;;5031570;28;20025;-87
2022/07/14 04:36:45;;;;;;;1.48;0.40;;;19.10;94.80;;;;;;5025713;28;20029;-87
2022/07/14 04:39:11;;;;;;;3.53;0.52;;;19.00;95.20;;;;;;5032704;28;20101;-87
2022/07/14 04:41:37;;;;;;;1.08;0.50;;;19.00;95.30;;;;;;5017502;28;20104;-87
2022/07/14 04:44:06;;;;;;;2.67;0.60;;;19.00;95.20;;;;;;5015330;28;20026;-87
2022/07/14 04:46:31;;;;;;;1.02;0.40;;;19.00;95.30;;;;;;5012611;28;20026;-88
2022/07/14 04:54:28;;;;;;;0.70;0.40;;;19.20;95.50;;;;;;5025479;28;20108;-88
2022/07/14 04:56:53;;;;;;;2.20;0.55;;;19.20;95.70;;;;;;5006077;28;20030;-88
2022/07/14 04:59:19;;;;;;;1.52;0.50;;;19.80;95.70;;;;;;5011769;28;20412;-88
2022/07/14 05:01:47;;;;;;;1.23;0.45;;;19.50;95.60;;;;;;5030406;28;20064;-87
2022/07/14 05:04:13;;;;;;;1.08;0.40;;;19.60;95.50;;;;;;5022695;28;20109;-87
2022/07/14 05:06:39;;;;;;;0.90;0.40;;;19.70;95.40;;;;;;5007795;28;20141;-87
2022/07/14 05:09:05;;;;;;;1.77;0.47;;;19.80;95.20;;;;;;5001561;28;20800;-88
2022/07/14 05:11:31;;;;;;;0.93;0.60;;;19.90;95.10;;;;;;5001971;28;20061;-88
2022/07/14 05:13:57;;;;;;;1.17;0.50;;;20.10;95.00;;;;;;5018097;28;20462;-88
2022/07/14 05:16:23;;;;;;;1.83;0.50;;;20.20;95.00;;;;;;5011760;28;20112;-88
2022/07/14 05:18:52;;;;;;;1.75;0.57;;;20.20;94.80;;;;;;5010461;28;20074;-88
2022/07/14 05:21:20;;;;;;;1.02;0.50;;;20.30;95.20;;;;;;5006094;28;20521;-89
2022/07/14 05:23:45;;;;;;;1.08;0.40;;;20.30;95.00;;;;;;5009285;28;20033;-89
2022/07/14 05:26:12;;;;;;;0.85;0.50;;;20.50;95.10;;;;;;5032795;28;20026;-88
2022/07/14 05:28:39;;;;;;;1.65;0.60;;;20.60;94.90;;;;;;5027269;28;20112;-88
2022/07/14 05:31:05;;;;;;;1.08;0.45;;;20.70;94.80;;;;;;5011126;28;20759;-86
2022/07/14 05:33:31;;;;;;;1.13;0.40;;;20.70;94.40;;;;;;5002866;28;20037;-87
2022/07/14 05:35:59;;;;;;;1.98;0.70;;;20.60;94.10;;;;;;5010314;28;20513;-88
2022/07/14 05:38:25;;;;;;;1.98;0.43;;;20.60;94.10;;;;;;5009003;28;20033;-88
2022/07/14 05:40:51;;;;;;;1.20;0.57;;;20.80;93.80;;;;;;5009894;28;20036;-87
2022/07/14 05:43:18;;;;;;;1.00;0.50;;;21.00;93.60;;;;;;5007217;28;20032;-88
2022/07/14 05:45:45;;;;;;;1.48;0.50;;;21.10;93.30;;;;;;5007783;28;20041;-88
2022/07/14 05:48:11;;;;;;;1.83;0.80;;;21.30;93.10;;;;;;5010849;28;20021;-88
2022/07/14 05:50:36;;;;;;;3.80;0.75;;;21.40;93.00;;;;;;5012786;28;20167;-88
2022/07/14 05:53:02;;;;;;;1.40;0.50;;;21.50;93.00;;;;;;5010498;28;20030;-87
2022/07/14 05:55:28;;;;;;;1.05;0.50;;;21.70;92.90;;;;;;5012376;28;20076;-88
2022/07/14 05:57:54;;;;;;;1.13;0.50;;;21.80;93.30;;;;;;5024862;28;20239;-88
2022/07/14 06:00:20;;;;;;;1.33;0.40;;;21.80;93.50;;;;;;5033432;28;20028;-88
2022/07/14 06:02:45;;;;;;;1.63;0.43;;;21.80;93.40;;;;;;5014657;28;20136;-87
2022/07/14 06:05:12;;;;;;;1.85;0.50;;;21.80;93.30;;;;;;5006386;28;20025;-89
2022/07/14 06:07:37;;;;;;;1.10;0.57;;;21.80;93.50;;;;;;5011667;28;20024;-88
2022/07/14 06:10:04;;;;;;;1.13;0.50;;;21.90;93.50;;;;;;5004332;28;20108;-88
2022/07/14 06:12:33;;;;;;;0.75;0.43;;;22.10;93.30;;;;;;5030669;28;20393;-89
2022/07/14 06:14:59;;;;;;;1.17;0.40;;;22.10;93.60;;;;;;5008648;28;20022;-89
2022/07/14 06:17:24;;;;;;;1.58;0.50;;;22.00;93.50;;;;;;5026031;28;20021;-89
2022/07/14 06:19:50;;;;;;;1.58;0.50;;;22.10;93.50;;;;;;5030446;28;20033;-89
2022/07/14 06:22:16;;;;;;;1.02;0.40;;;22.20;93.30;;;;;;5031481;28;20029;-89
2022/07/14 06:24:41;;;;;;;2.03;0.35;;;22.50;93.20;;;;;;5014063;28;20072;-89
2022/07/14 06:27:07;;;;;;;1.10;0.50;;;22.60;93.00;;;;;;5015692;28;20040;-89
2022/07/14 06:29:33;;;;;;;1.75;0.38;;;22.80;92.90;;;;;;5025327;28;20108;-89
2022/07/14 06:31:59;;;;;;;1.00;0.40;;;22.80;92.80;;;;;;5032156;28;20029;-89
2022/07/14 06:34:25;;;;;;;2.05;0.60;;;22.70;93.10;;;;;;5035679;28;20017;-89
2022/07/14 06:36:50;;;;;;;2.03;0.50;;;22.90;92.90;;;;;;5022821;28;20025;-89
2022/07/14 06:39:16;;;;;;;2.08;0.52;;;23.00;92.40;;;;;;5016707;28;20033;-88
2022/07/14 06:41:42;;;;;;;1.80;0.45;;;23.10;92.60;;;;;;5019147;28;20029;-88
2022/07/14 06:44:08;;;;;;;3.42;1.17;;;23.10;92.60;;;;;;5005693;28;20021;-89
2022/07/14 06:46:34;;;;;;;1.55;0.40;;;23.30;92.50;;;;;;5015788;28;20025;-89
2022/07/14 06:49:00;;;;;;;5.65;0.80;;;23.40;92.30;;;;;;5015428;28;20017;-89
2022/07/14 06:51:26;;;;;;;1.85;0.70;;;23.60;92.20;;;;;;5019137;28;20032;-89
2022/07/14 06:53:52;;;;;;;1.15;0.35;;;23.60;92.00;;;;;;5013743;28;20025;-89
2022/07/14 06:56:18;;;;;;;2.40;0.50;;;23.70;92.00;;;;;;5012734;28;20029;-89
2022/07/14 06:58:44;;;;;;;6.30;0.73;;;23.80;91.90;;;;;;5018006;28;20120;-90
2022/07/14 07:01:12;;;;;;;0.80;0.45;;;23.90;92.00;;;;;;5014651;28;20057;-90
2022/07/14 07:03:48;;;;;;;2.90;0.30;;;24.00;91.90;;;;;;5035483;28;20024;-90
2022/07/14 07:09:03;;;;;;;1.40;0.40;;;24.00;92.00;;;;;;5036976;28;20496;-90
2022/07/14 07:11:28;;;;;;;1.45;0.52;;;24.00;92.00;;;;;;5034688;28;20470;-90
2022/07/14 07:13:54;;;;;;;1.63;0.55;;;25.00;91.90;;;;;;5036330;28;20028;-91
2022/07/14 07:16:25;;;;;;;1.98;0.65;;;24.40;91.40;;;;;;5017334;28;20024;-90
2022/07/14 07:18:50;;;;;;;2.90;0.60;;;24.30;91.50;;;;;;5030716;28;20078;-91
2022/07/14 07:21:18;;;;;;;3.58;1.02;;;24.50;91.00;;;;;;5018591;28;20116;-90
2022/07/14 07:23:54;;;;;;;1.30;0.70;;;24.60;90.60;;;;;;5036514;28;20021;-90
2022/07/14 07:26:22;;;;;;;1.25;0.50;;;24.70;90.70;;;;;;5027955;28;20014;-90
2022/07/14 07:28:55;;;;;;;1.17;0.38;;;25.00;90.20;;;;;;5035391;28;20005;-91
2022/07/14 07:31:21;;;;;;;2.83;0.47;;;25.20;90.00;;;;;;5035556;28;20021;-89
2022/07/14 07:33:47;;;;;;;1.35;0.40;;;25.30;90.00;;;;;;5032765;28;20112;-90
2022/07/14 07:36:50;;;;;;;0.98;0.32;;;26.20;90.40;;;;;;5018608;28;20049;-91
2022/07/14 07:39:26;;;;;;;5.30;0.32;;;26.00;89.80;;;;;;5011908;28;20038;-90
2022/07/14 07:42:01;;;;;;;1.67;0.85;;;25.50;87.90;;;;;;5035966;28;20024;-90
2022/07/14 07:44:34;;;;;;;0.95;0.45;;;27.00;88.90;;;;;;5013566;28;20044;-91
2022/07/14 07:47:00;;;;;;;1.48;0.50;;;26.10;85.40;;;;;;5006309;22;20042;-88
2022/07/14 07:49:28;;;;;;;0.77;0.30;;;26.00;86.70;;;;;;4996595;28;20037;-87
2022/07/14 07:52:04;;;;;;;2.40;0.65;;;26.10;88.10;;;;;;5007369;28;20018;-89
2022/07/14 07:54:35;;;;;;;1.67;0.50;;;25.70;88.60;;;;;;4992148;28;20027;-88
2022/07/14 07:57:03;;;;;;;0.55;0.30;;;26.30;90.60;;;;;;4983061;28;20025;-90
2022/07/14 07:59:29;;;;;;;3.28;0.50;;;26.40;90.10;;;;;;4993735;28;20097;-89
2022/07/14 08:01:54;;;;;;;2.10;0.60;;;26.60;89.00;;;;;;4977766;28;20481;-90
2022/07/14 08:04:31;;;;;;;1.55;0.50;;;26.90;90.00;;;;;;4978583;28;20015;-88
2022/07/14 08:07:00;;;;;;;0.63;0.30;;;27.20;88.40;;;;;;4972285;28;20022;-90
2022/07/14 08:09:28;;;;;;;1.38;0.40;;;27.40;86.80;;;;;;4973847;28;20495;-89
2022/07/14 08:12:07;;;;;;;1.10;0.57;;;27.70;87.80;;;;;;4968337;28;20125;-88
2022/07/14 08:14:48;;;;;;;0.70;0.38;;;27.80;86.30;;;;;;4988018;28;20022;-89
2022/07/14 08:17:19;;;;;;;1.65;0.52;;;28.00;85.50;;;;;;4975363;28;20034;-89
2022/07/14 08:19:51;;;;;;;1.80;0.52;;;28.20;85.20;;;;;;4963534;28;20038;-90
2022/07/14 08:22:27;;;;;;;1.63;0.40;;;28.50;82.60;;;;;;4974234;28;20029;-89
2022/07/14 08:25:02;;;;;;;2.40;0.40;;;28.90;81.70;;;;;;4970823;28;20074;-89
2022/07/14 08:27:34;;;;;;;1.58;0.50;;;29.10;81.40;;;;;;4991449;28;20022;-89
2022/07/14 08:30:07;;;;;;;2.55;1.25;;;28.80;81.80;;;;;;4973782;28;20050;-90
2022/07/14 08:32:36;;;;;;;0.90;0.30;;;28.60;81.80;;;;;;4973860;28;20044;-89
2022/07/14 08:35:05;;;;;;;0.85;0.30;;;28.70;81.00;;;;;;4968575;28;20034;-90
2022/07/14 08:37:37;;;;;;;1.40;0.50;;;28.70;79.70;;;;;;4974897;28;20062;-89
2022/07/14 08:40:26;;;;;;;1.95;0.32;;;27.80;79.00;;;;;;4976200;28;20069;-90
2022/07/14 08:43:03;;;;;;;0.95;0.40;;;28.50;77.30;;;;;;4982191;28;20522;-89
2022/07/14 08:45:44;;;;;;;1.17;0.40;;;29.70;78.10;;;;;;4967988;28;20038;-89
2022/07/14 08:48:25;;;;;;;1.23;0.33;;;28.80;77.40;;;;;;4976025;28;20030;-91
2022/07/14 08:50:51;;;;;;;0.68;0.20;;;28.40;77.50;;;;;;4977333;28;20041;-91
2022/07/14 08:53:23;;;;;;;0.98;0.30;;;29.00;75.50;;;;;;4979908;28;20061;-91
2022/07/14 08:56:02;;;;;;;1.33;0.30;;;29.20;76.50;;;;;;4976767;28;20042;-91
2022/07/14 08:58:40;;;;;;;3.28;0.40;;;29.40;76.30;;;;;;4973902;28;20573;-91
2022/07/14 09:01:30;;;;;;;0.47;0.30;;;29.80;73.90;;;;;;4980163;28;20033;-91
2022/07/14 09:04:15;;;;;;;1.13;0.40;;;29.80;72.40;;;;;;4987530;28;20027;-91
2022/07/14 09:10:29;;;;;;;2.00;0.20;;;30.10;72.90;;;;;;4959421;28;20026;-91
2022/07/14 09:13:20;;;;;;;0.38;0.20;;;30.30;72.60;;;;;;4975552;28;20038;-91
2022/07/14 09:16:28;;;;;;;;;;;;;;;;;;;;;
2022/07/14 09:19:19;;;;;;;1.27;0.40;;;30.90;70.70;;;;;;4988410;28;20035;-91
2022/07/14 09:21:58;;;;;;;1.98;0.35;;;29.80;69.00;;;;;;4969714;28;20057;-92
2022/07/14 09:24:34;;;;;;;1.05;0.40;;;31.10;66.90;;;;;;4975423;28;20153;-92
2022/07/14 09:27:47;;;;;;;0.70;0.30;;;30.90;64.20;;;;;;4973161;28;20039;-92
2022/07/14 09:30:37;;;;;;;0.50;0.30;;;31.30;65.40;;;;;;4994262;28;20486;-90
2022/07/14 09:33:17;;;;;;;0.60;0.30;;;31.20;63.00;;;;;;4975059;28;20036;-90
2022/07/14 09:54:05;;;;;;;0.77;0.25;;;32.00;58.30;;;;;;5043317;28;20044;-93
2022/07/14 09:56:51;;;;;;;0.98;0.20;;;31.80;57.30;;;;;;5027708;28;20106;-93
2022/07/14 09:59:49;;;;;;;0.57;0.28;;;32.10;57.50;;;;;;5028225;28;20525;-93
2022/07/14 10:02:34;;;;;;;1.52;0.40;;;32.20;56.60;;;;;;5022643;28;20048;-93
2022/07/14 10:05:22;;;;;;;0.30;0.20;;;32.60;56.00;;;;;;5029503;28;20033;-93
2022/07/14 10:08:40;;;;;;;1.15;0.30;;;32.60;55.10;;;;;;5031208;28;20049;-94
2022/07/14 10:11:34;;;;;;;0.73;0.20;;;32.80;56.20;;;;;;4994767;28;20418;-91
2022/07/14 10:14:18;;;;;;;0.80;0.30;;;32.20;55.90;;;;;;5025754;28;20030;-89
2022/07/14 10:16:58;;;;;;;0.80;0.30;;;32.10;56.40;;;;;;5023015;28;20041;-90
2022/07/14 10:19:52;;;;;;;1.75;0.75;;;31.90;55.70;;;;;;5027037;28;20041;-88
2022/07/14 10:22:27;;;;;;;0.55;0.22;;;31.90;56.50;;;;;;5020788;28;20046;-89
2022/07/14 10:25:34;;;;;;;0.47;0.20;;;32.80;54.70;;;;;;5032633;28;20048;-91
2022/07/14 10:28:07;;;;;;;0.85;0.30;;;32.80;53.70;;;;;;5031856;28;20079;-91
2022/07/14 10:31:03;;;;;;;0.98;0.32;;;33.10;54.10;;;;;;5029343;28;20052;-90
2022/07/14 10:34:18;;;;;;;2.25;0.82;;;33.10;54.30;;;;;;5030996;28;20513;-90
2022/07/14 10:37:23;;;;;;;0.98;0.30;;;33.00;53.30;;;;;;5024729;22;20053;-89
2022/07/14 10:40:35;;;;;;;0.47;0.20;;;33.30;54.00;;;;;;4972690;28;20031;-89
2022/07/14 10:43:39;;;;;;;0.40;0.30;;;33.60;54.00;;;;;;4931557;29;20039;-89
2022/07/14 10:47:06;;;;;;;;;;;;;;;;;;;;;
2022/07/14 10:50:27;;;;;;;0.75;0.50;;;34.20;52.20;;;;;;4980849;28;20044;-89
2022/07/14 10:53:30;;;;;;;;;;;;;;;;;;;;;
2022/07/14 10:56:20;;;;;;;0.40;0.30;;;;;;;;;;4978336;28;20387;-90
2022/07/14 10:58:53;;;;;;;0.77;0.40;;;34.90;50.30;;;;;;5008338;28;20026;-90
2022/07/14 11:02:01;;;;;;;1.00;0.40;;;34.80;50.80;;;;;;4990510;28;20033;-89
2022/07/14 11:05:14;;;;;;;;;;;;;;;;;;;;;
2022/07/14 12:29:02;;;;;;;0.68;0.30;;;38.50;47.30;;;;;;5021078;28;20025;-91
2022/07/14 12:32:00;;;;;;;1.27;0.30;;;38.50;47.50;;;;;;5015456;28;20033;-91
2022/07/14 12:34:55;;;;;;;0.75;0.20;;;39.00;47.60;;;;;;5013616;28;20186;-91
2022/07/14 12:37:21;;;;;;;0.45;0.20;;;38.20;46.80;;;;;;5054354;22;20045;-91
2022/07/14 12:42:54;;;;;;;2.15;0.30;;;37.60;46.10;;;;;;5033214;28;20064;-91
2022/07/14 12:45:25;;;;;;;0.82;0.40;;;37.60;47.30;;;;;;5015774;28;20032;-92
2022/07/14 12:48:00;;;;;;;0.52;0.20;;;37.60;47.70;;;;;;5022025;28;20034;-91
2022/07/14 12:57:09;;;;;;;0.50;0.30;;;37.20;46.60;;;;;;4980153;28;20022;-92
2022/07/14 13:03:13;;;;;;;2.10;0.73;;;35.70;48.10;;;;;;5026703;28;20520;-91
2022/07/14 13:09:43;;;;;;;2.28;0.30;;;35.20;48.60;;;;;;5023770;28;20044;-92
2022/07/14 13:12:37;;;;;;;1.00;0.20;;;36.30;49.30;;;;;;4990665;28;20030;-86
2022/07/14 13:15:11;;;;;;;0.30;0.20;;;36.40;48.90;;;;;;4990660;28;20129;-90
2022/07/14 13:18:04;;;;;;;1.08;0.38;;;36.00;49.10;;;;;;5009455;28;20021;-90
2022/07/14 13:21:06;;;;;;;2.47;0.20;;;36.70;47.90;;;;;;5022876;28;20021;-90
2022/07/14 13:23:42;;;;;;;0.50;0.20;;;36.90;49.10;;;;;;5007325;28;20022;-89
2022/07/14 13:26:33;;;;;;;0.30;0.20;;;36.60;48.00;;;;;;5017128;28;20182;-90
2022/07/14 13:28:58;;;;;;;3.80;0.30;;;36.00;47.50;;;;;;5022166;28;20025;-90
2022/07/14 13:31:56;;;;;;;1.85;0.25;;;35.80;48.10;;;;;;5008609;28;20037;-89
2022/07/14 13:45:18;;;;;;;1.55;0.35;;;36.60;48.20;;;;;;5008350;28;20475;-88
2022/07/14 13:47:43;;;;;;;0.40;0.20;;;36.40;48.20;;;;;;5009553;28;20030;-89
2022/07/14 13:52:53;;;;;;;0.60;0.28;;;35.90;49.30;;;;;;5013010;28;20103;-89
2022/07/14 13:55:18;;;;;;;0.70;0.30;;;35.70;49.90;;;;;;5008737;28;20038;-88
2022/07/14 13:57:44;;;;;;;0.55;0.30;;;35.50;49.00;;;;;;5011931;28;20085;-88
2022/07/14 14:00:10;;;;;;;0.63;0.43;;;35.50;48.30;;;;;;5011437;28;20048;-88
2022/07/14 14:05:21;;;;;;;2.97;0.22;;;36.40;48.40;;;;;;5011573;28;20053;-89
2022/07/14 14:07:47;;;;;;;0.85;0.20;;;36.90;48.50;;;;;;5012635;28;20485;-88
2022/07/14 14:10:13;;;;;;;0.60;0.30;;;37.10;48.00;;;;;;5013703;28;20131;-89
2022/07/14 14:12:39;;;;;;;0.63;0.30;;;36.60;47.80;;;;;;5011789;28;20037;-89
2022/07/14 14:15:04;;;;;;;0.60;0.25;;;36.20;48.40;;;;;;5006746;28;20482;-89
2022/07/14 14:17:30;;;;;;;0.40;0.30;;;35.70;48.80;;;;;;5007900;28;20053;-89
2022/07/14 14:19:56;;;;;;;1.05;0.30;;;35.40;49.60;;;;;;5010685;28;20025;-88
2022/07/14 14:22:25;;;;;;;0.60;0.30;;;35.20;49.50;;;;;;5006996;28;20026;-89
2022/07/14 14:24:52;;;;;;;0.30;0.20;;;34.90;49.50;;;;;;5007602;28;20026;-89
2022/07/14 14:27:17;;;;;;;0.68;0.30;;;35.30;50.30;;;;;;5011445;28;20026;-89
2022/07/14 14:29:43;;;;;;;3.38;0.40;;;35.70;49.60;;;;;;5009791;28;20048;-89
2022/07/14 14:32:11;;;;;;;2.13;0.30;;;36.50;49.70;;;;;;5010817;28;20482;-89
2022/07/14 14:34:37;;;;;;;0.93;0.30;;;37.20;48.80;;;;;;5006066;28;20398;-88
2022/07/14 14:37:03;;;;;;;2.25;0.20;;;37.40;47.50;;;;;;5007589;28;20022;-90
2022/07/14 14:39:28;;;;;;;0.38;0.30;;;37.60;48.20;;;;;;5008348;28;20034;-89
2022/07/14 14:41:54;;;;;;;0.65;0.30;;;37.60;47.70;;;;;;5009520;28;20475;-88
2022/07/14 14:44:21;;;;;;;0.50;0.20;;;37.60;48.00;;;;;;5010882;28;20030;-89
2022/07/14 14:46:46;;;;;;;0.75;0.30;;;38.10;48.10;;;;;;5006671;28;20026;-89
2022/07/14 14:49:13;;;;;;;2.10;0.28;;;38.40;47.60;;;;;;5005763;28;20032;-89
2022/07/14 14:51:39;;;;;;;0.30;0.20;;;38.80;47.70;;;;;;4993186;28;20041;-89
2022/07/14 14:54:04;;;;;;;0.75;0.30;;;38.50;47.90;;;;;;5010992;28;20030;-89
2022/07/14 14:56:30;;;;;;;1.23;0.40;;;38.30;47.30;;;;;;5014369;28;20450;-88
2022/07/14 14:58:58;;;;;;;0.68;0.30;;;38.30;47.50;;;;;;5001689;28;20161;-88
2022/07/14 15:01:26;;;;;;;0.30;0.30;;;37.90;47.60;;;;;;5009141;28;20022;-90
2022/07/14 15:03:52;;;;;;;0.57;0.30;;;38.00;48.40;;;;;;5009958;28;20045;-89
2022/07/14 15:06:23;;;;;;;1.40;0.50;;;37.90;48.30;;;;;;5010331;28;20061;-89
2022/07/14 15:08:51;;;;;;;0.45;0.25;;;38.20;48.20;;;;;;5014296;28;20026;-87
2022/07/14 15:11:16;;;;;;;0.95;0.30;;;38.00;48.30;;;;;;5014363;28;20033;-89
2022/07/14 15:13:42;;;;;;;1.35;0.30;;;38.00;48.30;;;;;;5015184;28;20030;-89
2022/07/14 15:16:08;;;;;;;0.70;0.38;;;38.20;47.60;;;;;;5014791;28;20022;-90
2022/07/14 15:18:33;;;;;;;0.77;0.38;;;38.70;47.50;;;;;;5014663;28;20514;-89
2022/07/14 15:20:59;;;;;;;0.63;0.30;;;38.40;48.00;;;;;;5009390;28;20050;-88
2022/07/14 15:23:25;;;;;;;0.75;0.40;;;37.70;48.80;;;;;;5012912;28;20718;-89
2022/07/14 15:25:53;;;;;;;2.22;0.60;;;36.40;48.90;;;;;;5027194;28;20709;-90
2022/07/14 15:28:19;;;;;;;0.70;0.40;;;36.70;48.70;;;;;;5008690;28;20024;-89
2022/07/14 15:30:45;;;;;;;0.85;0.40;;;35.90;49.30;;;;;;5013286;28;20022;-89
2022/07/14 15:33:14;;;;;;;0.85;0.40;;;35.10;50.90;;;;;;5002553;28;20171;-89
2022/07/14 15:35:39;;;;;;;1.42;0.43;;;34.70;51.60;;;;;;5012199;28;20037;-89
2022/07/14 15:38:06;;;;;;;1.23;0.40;;;34.20;53.10;;;;;;5012977;28;20022;-90
2022/07/14 15:43:19;;;;;;;1.08;0.40;;;33.70;52.40;;;;;;5012701;28;20133;-89
2022/07/14 15:45:46;;;;;;;0.85;0.30;;;32.60;51.70;;;;;;5014771;28;20028;-89